Time;durP1;ratioP1;P1;durP2;ratioP2;P2;SDS_P1;SDS_P2;PMS_P1;PMS_P2;Temp;Humidity;BMP_temperature;BMP_pressure;BME280_temperature;BME280_humidity;BME280_pressure;Samples;Min_cycle;Max_cycle;Signal;HPM_P1;HPM_P2
2022/10/30 00:00:22;;;;;;;40.65;14.82;;;;;;;;;;6206381;23;20012;-90
2022/10/30 00:02:48;;;;;;;35.58;15.35;;;;;;;;;;6184025;23;20008;-89
2022/10/30 00:05:15;;;;;;;38.05;14.50;;;;;;;;;;6204568;23;20004;-90
2022/10/30 00:07:41;;;;;;;35.95;14.82;;;;;;;;;;6182875;23;20043;-90
2022/10/30 00:10:07;;;;;;;38.88;14.80;;;;;;;;;;6207158;23;20297;-90
2022/10/30 00:12:33;;;;;;;38.28;14.45;;;;;;;;;;6208014;23;20035;-89
2022/10/30 00:15:00;;;;;;;31.65;14.13;;;;;;;;;;6205589;23;20005;-89
2022/10/30 00:17:26;;;;;;;37.45;14.30;;;;;;;;;;6209358;23;20001;-89
2022/10/30 00:19:52;;;;;;;39.92;14.30;;;;;;;;;;6204777;23;20094;-90
2022/10/30 00:22:18;;;;;;;35.30;14.10;;;;;;;;;;6210627;23;20411;-90
2022/10/30 00:24:44;;;;;;;37.47;13.93;;;;;;;;;;6184836;23;20009;-90
2022/10/30 00:27:10;;;;;;;40.88;14.10;;;;;;;;;;6211228;23;20542;-90
2022/10/30 00:29:36;;;;;;;43.20;14.98;;;;;;;;;;6205515;23;20036;-90
2022/10/30 00:32:02;;;;;;;26.40;13.80;;;;;;;;;;6185641;23;20092;-90
2022/10/30 00:34:28;;;;;;;33.17;14.57;;;;;;;;;;6209567;23;20009;-90
2022/10/30 00:36:54;;;;;;;49.47;16.13;;;;;;;;;;6213640;22;20451;-89
2022/10/30 00:39:20;;;;;;;35.22;14.55;;;;;;;;;;6184104;23;20020;-89
2022/10/30 00:41:46;;;;;;;56.08;16.08;;;;;;;;;;6184530;23;20432;-89
2022/10/30 00:44:31;;;;;;;43.25;13.73;;;;;;;;;;6204477;23;20009;-90
2022/10/30 00:47:03;;;;;;;39.97;13.98;;;;;;;;;;6210418;23;20004;-90
2022/10/30 00:49:31;;;;;;;32.72;13.95;;;;;;;;;;6210266;23;20016;-90
2022/10/30 00:51:57;;;;;;;30.13;12.57;;;;;;;;;;6211260;23;20016;-89
2022/10/30 00:54:23;;;;;;;36.97;13.07;;;;;;;;;;6210183;23;20009;-90
2022/10/30 00:56:50;;;;;;;39.45;15.85;;;;;;;;;;6185709;23;20017;-90
2022/10/30 00:59:22;;;;;;;36.58;14.30;;;;;;;;;;6209150;23;20032;-90
2022/10/30 01:01:50;;;;;;;28.20;14.27;;;;;;;;;;6205388;23;20506;-89
2022/10/30 01:04:16;;;;;;;36.47;13.68;;;;;;;;;;6207498;23;20446;-89
2022/10/30 01:06:47;;;;;;;34.45;13.57;;;;;;;;;;6181159;23;20425;-90
2022/10/30 01:09:13;;;;;;;30.60;13.98;;;;;;;;;;6207641;23;20413;-89
2022/10/30 01:11:39;;;;;;;38.72;13.93;;;;;;;;;;6207859;23;20441;-89
2022/10/30 01:14:06;;;;;;;39.30;14.40;;;;;;;;;;6181919;23;20013;-89
2022/10/30 01:16:42;;;;;;;33.72;13.63;;;;;;;;;;6206348;23;20008;-89
2022/10/30 01:19:17;;;;;;;48.77;13.57;;;;;;;;;;6208726;23;20012;-89
2022/10/30 01:22:12;;;;;;;40.22;13.00;;;;;;;;;;6207831;23;20239;-89
2022/10/30 01:24:54;;;;;;;43.45;14.20;;;;;;;;;;6203952;23;20516;-89
2022/10/30 01:27:44;;;;;;;40.08;14.07;;;;;;;;;;6208295;23;19997;-88
2022/10/30 01:30:17;;;;;;;35.65;13.20;;;;;;;;;;6193740;23;20266;-89
2022/10/30 01:33:02;;;;;;;32.05;12.80;;;;;;;;;;6208014;23;20445;-89
2022/10/30 01:35:53;;;;;;;32.25;13.23;;;;;;;;;;6205852;22;20005;-89
2022/10/30 01:38:25;;;;;;;32.95;13.18;;;;;;;;;;6268547;22;20364;-89
2022/10/30 01:40:51;;;;;;;32.47;14.02;;;;;;;;;;6241817;22;20118;-89
2022/10/30 01:43:17;;;;;;;37.33;13.75;;;;;;;;;;6216751;22;20016;-89
2022/10/30 01:45:50;;;;;;;31.67;13.60;;;;;;;;;;6213906;22;20340;-89
2022/10/30 01:48:19;;;;;;;32.65;13.38;;;;;;;;;;6237051;22;20052;-89
2022/10/30 01:50:50;;;;;;;28.92;12.65;;;;;;;;;;6241534;22;20387;-89
2022/10/30 01:53:16;;;;;;;33.83;13.88;;;;;;;;;;6239713;22;20068;-89
2022/10/30 01:55:54;;;;;;;48.00;12.95;;;;;;;;;;6239804;22;20031;-89
2022/10/30 01:58:23;;;;;;;30.02;12.82;;;;;;;;;;6269372;22;20463;-89
2022/10/30 02:00:53;;;;;;;42.42;13.35;;;;;;;;;;6267534;22;20011;-90
2022/10/30 02:03:19;;;;;;;34.45;12.95;;;;;;;;;;6239484;22;20503;-89
2022/10/30 02:05:47;;;;;;;39.47;14.30;;;;;;;;;;6242303;22;20035;-89
2022/10/30 02:08:14;;;;;;;34.25;12.95;;;;;;;;;;6239525;22;20015;-89
2022/10/30 02:10:42;;;;;;;38.15;13.70;;;;;;;;;;6243052;22;20091;-89
2022/10/30 02:13:08;;;;;;;45.13;13.80;;;;;;;;;;6240203;22;20367;-89
2022/10/30 02:15:37;;;;;;;36.25;12.93;;;;;;;;;;6214300;22;20014;-89
2022/10/30 02:18:03;;;;;;;33.38;13.38;;;;;;;;;;6240856;22;20004;-89
2022/10/30 02:20:30;;;;;;;36.60;13.50;;;;;;;;;;6269081;22;20047;-89
2022/10/30 02:22:56;;;;;;;35.55;13.07;;;;;;;;;;6268322;22;20004;-89
2022/10/30 02:25:22;;;;;;;31.83;12.48;;;;;;;;;;6241073;22;20034;-89
2022/10/30 02:27:48;;;;;;;40.45;13.38;;;;;;;;;;6213976;22;20081;-89
2022/10/30 02:30:14;;;;;;;38.55;13.15;;;;;;;;;;6210981;22;20061;-89
2022/10/30 02:32:40;;;;;;;34.92;12.65;;;;;;;;;;6241658;22;20015;-89
2022/10/30 02:35:06;;;;;;;32.42;12.50;;;;;;;;;;6215786;22;20065;-89
2022/10/30 02:37:34;;;;;;;43.33;13.48;;;;;;;;;;6187373;22;20020;-89
2022/10/30 02:40:00;;;;;;;39.28;13.73;;;;;;;;;;6206485;23;20016;-89
2022/10/30 02:42:26;;;;;;;37.67;13.55;;;;;;;;;;6206032;23;20425;-89
2022/10/30 02:44:52;;;;;;;36.45;13.43;;;;;;;;;;6177469;23;20080;-89
2022/10/30 02:47:18;;;;;;;36.97;12.68;;;;;;;;;;6179204;23;20108;-89
2022/10/30 02:49:45;;;;;;;34.08;12.75;;;;;;;;;;6181629;23;20506;-90
2022/10/30 02:52:11;;;;;;;37.03;12.73;;;;;;;;;;6179554;23;20383;-89
2022/10/30 02:54:37;;;;;;;31.83;12.35;;;;;;;;;;6205606;23;20503;-89
2022/10/30 02:57:03;;;;;;;25.83;11.27;;;;;;;;;;6179620;23;20012;-89
2022/10/30 02:59:29;;;;;;;29.60;12.55;;;;;;;;;;6179404;23;20092;-89
2022/10/30 03:01:55;;;;;;;34.65;12.25;;;;;;;;;;6203794;23;20341;-89
2022/10/30 03:04:21;;;;;;;27.90;11.82;;;;;;;;;;6180549;23;20015;-90
2022/10/30 03:06:47;;;;;;;33.33;12.85;;;;;;;;;;6204179;23;20095;-89
2022/10/30 03:09:13;;;;;;;39.22;12.88;;;;;;;;;;6179358;23;20103;-89
2022/10/30 03:11:39;;;;;;;27.70;12.27;;;;;;;;;;6207314;23;20661;-89
2022/10/30 03:14:08;;;;;;;30.33;12.32;;;;;;;;;;6179472;23;20025;-90
2022/10/30 03:16:35;;;;;;;32.38;12.90;;;;;;;;;;6205632;23;20241;-89
2022/10/30 03:19:01;;;;;;;31.02;12.52;;;;;;;;;;6204848;23;20005;-90
2022/10/30 03:21:28;;;;;;;35.70;11.98;;;;;;;;;;6182654;23;20012;-89
2022/10/30 03:23:54;;;;;;;36.03;13.07;;;;;;;;;;6205003;23;20016;-89
2022/10/30 03:26:21;;;;;;;32.58;13.70;;;;;;;;;;6205161;23;20199;-89
2022/10/30 03:28:47;;;;;;;34.35;12.90;;;;;;;;;;6205286;23;20004;-89
2022/10/30 03:31:14;;;;;;;44.50;14.68;;;;;;;;;;6205776;23;20380;-89
2022/10/30 03:33:40;;;;;;;35.97;13.07;;;;;;;;;;6207030;23;20000;-89
2022/10/30 03:36:07;;;;;;;33.65;12.57;;;;;;;;;;6192724;22;20092;-89
2022/10/30 03:38:33;;;;;;;32.70;12.27;;;;;;;;;;6214105;22;20000;-89
2022/10/30 03:41:01;;;;;;;34.88;12.30;;;;;;;;;;6241629;22;20023;-89
2022/10/30 03:43:27;;;;;;;28.58;12.10;;;;;;;;;;6240760;22;20007;-89
2022/10/30 03:45:54;;;;;;;33.05;12.57;;;;;;;;;;6240631;22;20094;-89
2022/10/30 03:48:22;;;;;;;38.17;12.70;;;;;;;;;;6215092;22;20086;-90
2022/10/30 03:50:49;;;;;;;32.53;12.30;;;;;;;;;;6240153;22;20008;-89
2022/10/30 03:53:15;;;;;;;31.52;13.13;;;;;;;;;;6238894;22;20098;-89
2022/10/30 03:55:41;;;;;;;30.85;13.57;;;;;;;;;;6215602;22;20223;-90
2022/10/30 03:58:07;;;;;;;36.63;12.20;;;;;;;;;;6239367;22;20008;-89
2022/10/30 04:00:34;;;;;;;30.05;13.02;;;;;;;;;;6239834;22;20041;-90
2022/10/30 04:03:01;;;;;;;31.08;12.82;;;;;;;;;;6240422;22;20068;-90
2022/10/30 04:05:27;;;;;;;40.88;12.63;;;;;;;;;;6214647;22;20007;-89
2022/10/30 04:07:58;;;;;;;27.48;11.77;;;;;;;;;;6265946;22;20004;-89
2022/10/30 04:10:24;;;;;;;34.42;13.25;;;;;;;;;;6268215;22;20012;-89
2022/10/30 04:12:51;;;;;;;32.85;12.82;;;;;;;;;;6265920;22;20007;-89
2022/10/30 04:15:17;;;;;;;37.92;13.80;;;;;;;;;;6239522;22;20829;-89
2022/10/30 04:17:50;;;;;;;35.00;12.25;;;;;;;;;;6213774;22;20100;-89
2022/10/30 04:20:17;;;;;;;37.55;13.07;;;;;;;;;;6266716;22;20007;-89
2022/10/30 04:22:44;;;;;;;40.65;13.25;;;;;;;;;;6239969;22;20101;-89
2022/10/30 04:25:10;;;;;;;30.70;12.68;;;;;;;;;;6240203;22;20050;-89
2022/10/30 04:27:43;;;;;;;37.28;13.00;;;;;;;;;;6240481;22;20312;-90
2022/10/30 04:30:10;;;;;;;33.45;12.82;;;;;;;;;;6239797;22;20469;-89
2022/10/30 04:32:37;;;;;;;37.88;13.15;;;;;;;;;;6216196;22;20102;-90
2022/10/30 04:35:03;;;;;;;34.95;13.70;;;;;;;;;;6267020;22;20012;-90
2022/10/30 04:37:30;;;;;;;39.88;12.80;;;;;;;;;;6266776;22;20479;-89
2022/10/30 04:39:56;;;;;;;25.55;13.25;;;;;;;;;;6240444;22;20046;-89
2022/10/30 04:42:22;;;;;;;37.08;12.70;;;;;;;;;;6214211;22;20008;-89
2022/10/30 04:44:48;;;;;;;50.78;13.63;;;;;;;;;;6213385;22;20018;-89
2022/10/30 04:47:16;;;;;;;36.30;13.93;;;;;;;;;;6240841;22;20011;-89
2022/10/30 04:49:42;;;;;;;33.97;12.27;;;;;;;;;;6237749;22;20012;-90
2022/10/30 04:52:08;;;;;;;33.60;12.52;;;;;;;;;;6240692;22;20513;-90
2022/10/30 04:54:34;;;;;;;32.95;13.50;;;;;;;;;;6215625;22;20039;-90
2022/10/30 04:57:00;;;;;;;41.42;13.48;;;;;;;;;;6214603;22;20015;-89
2022/10/30 04:59:26;;;;;;;30.65;13.73;;;;;;;;;;6239894;22;20069;-89
2022/10/30 05:01:52;;;;;;;31.95;12.52;;;;;;;;;;6216200;22;20004;-89
2022/10/30 05:04:18;;;;;;;40.58;14.20;;;;;;;;;;6216565;22;20007;-89
2022/10/30 05:06:44;;;;;;;39.20;13.85;;;;;;;;;;6216122;22;20012;-90
2022/10/30 05:09:10;;;;;;;31.45;13.18;;;;;;;;;;6217917;22;20014;-89
2022/10/30 05:11:36;;;;;;;39.97;14.63;;;;;;;;;;6218994;22;20008;-89
2022/10/30 05:14:02;;;;;;;37.47;13.20;;;;;;;;;;6218689;22;20023;-89
2022/10/30 05:16:28;;;;;;;35.92;13.30;;;;;;;;;;6241668;22;20014;-89
2022/10/30 05:18:54;;;;;;;32.13;13.88;;;;;;;;;;6219825;22;20227;-89
2022/10/30 05:21:20;;;;;;;34.38;13.07;;;;;;;;;;6218412;22;20340;-89
2022/10/30 05:23:47;;;;;;;30.27;13.45;;;;;;;;;;6271355;22;20004;-90
2022/10/30 05:26:13;;;;;;;32.78;13.32;;;;;;;;;;6246550;22;20335;-90
2022/10/30 05:28:41;;;;;;;42.20;13.75;;;;;;;;;;6218478;22;20007;-89
2022/10/30 05:31:07;;;;;;;38.58;13.50;;;;;;;;;;6243135;22;20015;-89
2022/10/30 05:33:33;;;;;;;33.25;13.15;;;;;;;;;;6220516;22;20466;-90
2022/10/30 05:35:59;;;;;;;36.25;13.27;;;;;;;;;;6247476;22;20122;-90
2022/10/30 05:38:32;;;;;;;34.00;13.48;;;;;;;;;;6190030;22;20036;-90
2022/10/30 05:40:58;;;;;;;30.60;12.77;;;;;;;;;;6211511;23;20112;-89
2022/10/30 05:43:24;;;;;;;32.88;13.70;;;;;;;;;;6209510;23;20008;-89
2022/10/30 05:45:50;;;;;;;36.00;13.80;;;;;;;;;;6209003;23;20404;-90
2022/10/30 05:48:16;;;;;;;35.00;14.63;;;;;;;;;;6208899;23;20015;-90
2022/10/30 05:50:43;;;;;;;34.03;14.23;;;;;;;;;;6209157;23;20032;-89
2022/10/30 05:53:09;;;;;;;37.13;13.63;;;;;;;;;;6183954;23;20106;-89
2022/10/30 05:55:35;;;;;;;42.42;14.02;;;;;;;;;;6206885;23;20008;-90
2022/10/30 05:58:05;;;;;;;31.88;13.98;;;;;;;;;;6184529;23;20016;-90
2022/10/30 06:00:35;;;;;;;34.13;13.70;;;;;;;;;;6208871;23;20012;-90
2022/10/30 06:03:01;;;;;;;38.35;14.00;;;;;;;;;;6208927;23;20452;-90
2022/10/30 06:05:29;;;;;;;37.70;13.88;;;;;;;;;;6208734;23;20008;-90
2022/10/30 06:07:55;;;;;;;33.65;14.02;;;;;;;;;;6208765;23;20057;-89
2022/10/30 06:10:25;;;;;;;29.13;13.80;;;;;;;;;;6183205;23;20043;-90
2022/10/30 06:12:58;;;;;;;37.25;14.85;;;;;;;;;;6183170;23;20032;-90
2022/10/30 06:15:24;;;;;;;44.53;13.98;;;;;;;;;;6207491;23;20039;-90
2022/10/30 06:17:50;;;;;;;32.80;14.63;;;;;;;;;;6209526;23;20008;-89
2022/10/30 06:20:18;;;;;;;41.75;17.10;;;;;;;;;;6207309;23;20088;-90
2022/10/30 06:22:56;;;;;;;35.30;16.70;;;;;;;;;;6181971;23;20469;-90
2022/10/30 06:25:22;;;;;;;41.38;14.48;;;;;;;;;;6208004;23;20086;-90
2022/10/30 06:27:49;;;;;;;35.75;15.45;;;;;;;;;;6207405;23;20005;-90
2022/10/30 06:30:15;;;;;;;35.95;15.73;;;;;;;;;;6207723;23;20040;-89
2022/10/30 06:32:41;;;;;;;42.35;15.70;;;;;;;;;;6209067;23;20044;-89
2022/10/30 06:35:08;;;;;;;35.35;16.40;;;;;;;;;;6207264;23;20016;-89
2022/10/30 06:37:34;;;;;;;46.88;16.67;;;;;;;;;;6209521;22;20016;-89
2022/10/30 06:40:00;;;;;;;29.00;13.75;;;;;;;;;;6181926;23;20016;-89
2022/10/30 06:42:26;;;;;;;31.00;14.55;;;;;;;;;;6183607;23;20012;-89
2022/10/30 06:44:53;;;;;;;29.23;14.25;;;;;;;;;;6181192;23;20116;-88
2022/10/30 06:47:19;;;;;;;42.88;15.40;;;;;;;;;;6208560;23;20307;-89
2022/10/30 06:49:45;;;;;;;42.40;14.75;;;;;;;;;;6206427;23;20012;-89
2022/10/30 06:52:11;;;;;;;40.65;15.05;;;;;;;;;;6207590;23;20455;-88
2022/10/30 06:54:37;;;;;;;31.73;13.50;;;;;;;;;;6208390;23;20074;-89
2022/10/30 06:57:03;;;;;;;43.30;14.05;;;;;;;;;;6183130;23;20448;-88
2022/10/30 06:59:29;;;;;;;29.70;13.57;;;;;;;;;;6209319;23;20008;-88
2022/10/30 07:01:55;;;;;;;34.25;14.00;;;;;;;;;;6206534;23;20336;-88
2022/10/30 07:04:21;;;;;;;36.63;13.50;;;;;;;;;;6182674;23;20058;-89
2022/10/30 07:06:47;;;;;;;52.45;13.55;;;;;;;;;;6206372;23;20040;-88
2022/10/30 07:09:20;;;;;;;31.65;14.15;;;;;;;;;;6207355;23;20019;-88
2022/10/30 07:11:46;;;;;;;28.67;11.82;;;;;;;;;;6207032;23;20020;-89
2022/10/30 07:14:12;;;;;;;36.22;13.18;;;;;;;;;;6181532;23;20024;-89
2022/10/30 07:16:38;;;;;;;41.70;13.50;;;;;;;;;;6206316;23;20292;-88
2022/10/30 07:19:04;;;;;;;26.95;13.15;;;;;;;;;;6181533;23;20008;-89
2022/10/30 07:21:30;;;;;;;33.55;13.65;;;;;;;;;;6182222;23;20318;-88
2022/10/30 07:23:56;;;;;;;39.88;13.93;;;;;;;;;;6206657;23;20004;-88
2022/10/30 07:26:22;;;;;;;35.95;14.02;;;;;;;;;;6206747;23;20341;-88
2022/10/30 07:28:48;;;;;;;39.85;13.73;;;;;;;;;;6207199;23;20070;-89
2022/10/30 07:31:14;;;;;;;30.05;13.15;;;;;;;;;;6181595;23;20319;-88
2022/10/30 07:33:40;;;;;;;30.88;12.32;;;;;;;;;;6183636;23;20031;-88
2022/10/30 07:36:07;;;;;;;29.45;10.93;;;;;;;;;;6206353;23;20009;-88
2022/10/30 07:38:33;;;;;;;39.78;12.40;;;;;;;;;;6184293;22;20013;-89
2022/10/30 07:40:59;;;;;;;31.85;12.20;;;;;;;;;;6182701;23;20384;-89
2022/10/30 07:43:25;;;;;;;32.22;12.05;;;;;;;;;;6206557;23;20040;-89
2022/10/30 07:45:51;;;;;;;28.70;12.73;;;;;;;;;;6206857;23;20144;-88
2022/10/30 07:48:17;;;;;;;26.17;12.10;;;;;;;;;;6205348;23;20036;-88
2022/10/30 07:50:43;;;;;;;33.65;12.98;;;;;;;;;;6182300;23;20016;-89
2022/10/30 07:53:09;;;;;;;27.60;11.90;;;;;;;;;;6207629;23;20008;-89
2022/10/30 07:55:35;;;;;;;25.35;10.93;;;;;;;;;;6182650;23;20492;-89
2022/10/30 07:58:02;;;;;;;24.63;10.63;;;;;;;;;;6206343;23;20023;-89
2022/10/30 08:00:28;;;;;;;32.80;11.88;;;;;;;;;;6205716;23;20009;-89
2022/10/30 08:02:57;;;;;;;27.90;11.02;;;;;;;;;;6209594;23;20009;-89
2022/10/30 08:05:24;;;;;;;28.77;11.25;;;;;;;;;;6207582;23;20004;-89
2022/10/30 08:07:50;;;;;;;31.77;11.45;;;;;;;;;;6182942;23;20012;-89
2022/10/30 08:10:16;;;;;;;27.25;11.45;;;;;;;;;;6181657;23;20070;-89
2022/10/30 08:12:44;;;;;;;23.50;10.60;;;;;;;;;;6206370;23;20503;-88
2022/10/30 08:15:11;;;;;;;27.08;9.48;;;;;;;;;;6182499;23;20365;-89
2022/10/30 08:17:47;;;;;;;25.42;10.68;;;;;;;;;;6233084;23;20009;-89
2022/10/30 08:20:14;;;;;;;31.05;10.20;;;;;;;;;;6207834;23;20020;-89
2022/10/30 08:22:50;;;;;;;26.00;10.27;;;;;;;;;;6208438;23;20001;-89
2022/10/30 08:25:15;;;;;;;;;;;;;;;;;;6210037;23;20009;-89
2022/10/30 08:28:01;;;;;;;34.80;9.82;;;;;;;;;;6214518;23;19908;-89
2022/10/30 08:30:29;;;;;;;37.85;10.65;;;;;;;;;;6235028;23;20447;-89
2022/10/30 08:32:57;;;;;;;26.02;10.20;;;;;;;;;;6216046;23;20063;-87
2022/10/30 08:35:23;;;;;;;21.63;10.00;;;;;;;;;;6189903;23;20016;-89
2022/10/30 08:37:51;;;;;;;21.65;9.40;;;;;;;;;;6189654;22;20099;-89
2022/10/30 08:40:17;;;;;;;25.83;10.35;;;;;;;;;;6211263;23;20023;-90
2022/10/30 08:42:49;;;;;;;21.25;10.02;;;;;;;;;;6213107;23;20004;-89
2022/10/30 08:45:16;;;;;;;29.13;10.15;;;;;;;;;;6212824;23;20016;-89
2022/10/30 08:47:42;;;;;;;29.38;9.88;;;;;;;;;;6187774;23;20035;-89
2022/10/30 08:50:08;;;;;;;26.35;9.60;;;;;;;;;;6212803;23;20384;-89
2022/10/30 08:52:34;;;;;;;31.40;9.43;;;;;;;;;;6212378;23;20021;-89
2022/10/30 08:55:00;;;;;;;25.10;9.27;;;;;;;;;;6212557;23;20059;-89
2022/10/30 08:57:27;;;;;;;49.33;12.32;;;;;;;;;;6213704;23;20008;-89
2022/10/30 08:59:54;;;;;;;27.90;9.40;;;;;;;;;;6185947;23;20016;-89
2022/10/30 09:02:20;;;;;;;22.55;9.23;;;;;;;;;;6211388;23;20009;-89
2022/10/30 09:04:46;;;;;;;21.95;8.90;;;;;;;;;;6211292;23;20019;-89
2022/10/30 09:07:12;;;;;;;28.27;9.88;;;;;;;;;;6211936;23;20005;-89
2022/10/30 09:09:38;;;;;;;20.10;9.50;;;;;;;;;;6210371;23;20016;-89
2022/10/30 09:12:04;;;;;;;21.95;9.40;;;;;;;;;;6236800;23;20883;-89
2022/10/30 09:14:30;;;;;;;18.42;9.20;;;;;;;;;;6210843;23;20237;-89
2022/10/30 09:16:56;;;;;;;27.83;9.60;;;;;;;;;;6236145;23;20001;-89
2022/10/30 09:19:23;;;;;;;22.77;9.43;;;;;;;;;;6212247;23;20396;-90
2022/10/30 09:21:49;;;;;;;25.50;9.82;;;;;;;;;;6207897;23;20226;-89
2022/10/30 09:24:15;;;;;;;22.92;10.18;;;;;;;;;;6209078;23;20019;-89
2022/10/30 09:26:41;;;;;;;25.65;9.63;;;;;;;;;;6208819;23;20260;-90
2022/10/30 09:29:07;;;;;;;27.75;11.52;;;;;;;;;;6209453;23;20012;-90
2022/10/30 09:31:33;;;;;;;21.92;9.45;;;;;;;;;;6208749;23;20004;-89
2022/10/30 09:33:59;;;;;;;22.52;8.57;;;;;;;;;;6209918;23;20012;-90
2022/10/30 09:36:25;;;;;;;25.73;9.60;;;;;;;;;;6208809;23;20074;-89
2022/10/30 09:38:52;;;;;;;22.13;9.70;;;;;;;;;;6213914;22;20072;-89
2022/10/30 09:41:38;;;;;;;18.33;8.50;;;;;;;;;;6211010;23;20024;-89
2022/10/30 09:44:11;;;;;;;22.77;8.48;;;;;;;;;;6214197;23;20000;-89
2022/10/30 09:46:37;;;;;;;20.85;9.52;;;;;;;;;;6235381;23;20122;-89
2022/10/30 09:49:03;;;;;;;25.25;8.93;;;;;;;;;;6238112;23;20073;-89
2022/10/30 09:51:48;;;;;;;20.05;8.40;;;;;;;;;;6233823;23;20036;-89
2022/10/30 09:54:18;;;;;;;21.02;8.40;;;;;;;;;;6233576;23;20058;-89
2022/10/30 09:56:52;;;;;;;21.13;9.85;;;;;;;;;;6233600;23;20086;-89
2022/10/30 09:59:28;;;;;;;20.15;9.45;;;;;;;;;;6233067;23;20008;-90
2022/10/30 10:02:03;;;;;;;23.05;7.93;;;;;;;;;;6233090;23;20016;-90
2022/10/30 10:04:29;;;;;;;22.25;8.75;;;;;;;;;;6210220;23;20004;-90
2022/10/30 10:07:22;;;;;;;25.60;9.15;;;;;;;;;;6234364;23;20110;-90
2022/10/30 10:09:51;;;;;;;20.15;8.40;;;;;;;;;;6175327;23;20034;-89
2022/10/30 10:12:30;;;;;;;14.10;7.43;;;;;;;;;;6232996;23;20009;-89
2022/10/30 10:14:57;;;;;;;24.30;8.63;;;;;;;;;;6232167;23;20455;-90
2022/10/30 10:17:27;;;;;;;19.70;7.43;;;;;;;;;;6207957;23;20090;-90
2022/10/30 10:20:01;;;;;;;24.13;9.43;;;;;;;;;;6234357;23;20004;-90
2022/10/30 10:22:40;;;;;;;17.27;7.80;;;;;;;;;;6235291;23;20379;-88
2022/10/30 10:25:08;;;;;;;15.70;9.10;;;;;;;;;;6210031;23;20001;-89
2022/10/30 10:27:59;;;;;;;17.38;7.35;;;;;;;;;;6232668;23;20008;-90
2022/10/30 10:30:28;;;;;;;29.33;9.45;;;;;;;;;;6233022;23;20020;-90
2022/10/30 10:33:00;;;;;;;22.80;7.90;;;;;;;;;;6232298;23;20017;-90
2022/10/30 10:35:42;;;;;;;21.33;7.63;;;;;;;;;;6234523;23;20008;-89
2022/10/30 10:38:18;;;;;;;25.63;8.48;;;;;;;;;;6241403;22;20546;-89
2022/10/30 10:40:44;;;;;;;20.35;9.25;;;;;;;;;;6246079;22;20008;-90
2022/10/30 10:43:22;;;;;;;20.95;9.13;;;;;;;;;;6243383;22;20668;-90
2022/10/30 10:45:48;;;;;;;22.65;7.53;;;;;;;;;;6243871;22;20400;-90
2022/10/30 10:48:33;;;;;;;14.45;6.38;;;;;;;;;;6243682;22;20091;-90
2022/10/30 10:51:25;;;;;;;18.95;6.82;;;;;;;;;;6272073;22;20009;-90
2022/10/30 10:54:00;;;;;;;20.48;7.75;;;;;;;;;;6240570;22;20015;-89
2022/10/30 10:56:31;;;;;;;15.68;6.82;;;;;;;;;;6245759;22;20477;-90
2022/10/30 10:58:59;;;;;;;13.00;7.07;;;;;;;;;;6247561;22;20007;-89
2022/10/30 11:01:45;;;;;;;21.30;6.65;;;;;;;;;;6243452;22;20023;-90
2022/10/30 11:04:38;;;;;;;21.40;6.60;;;;;;;;;;6245981;22;20007;-90
2022/10/30 11:07:24;;;;;;;19.60;6.97;;;;;;;;;;6233372;22;20403;-90
2022/10/30 11:09:55;;;;;;;18.88;5.53;;;;;;;;;;6246014;22;20004;-90
2022/10/30 11:12:24;;;;;;;15.48;5.68;;;;;;;;;;6245669;22;20033;-90
2022/10/30 11:14:50;;;;;;;17.73;5.38;;;;;;;;;;6244917;22;20545;-90
2022/10/30 11:17:35;;;;;;;18.13;5.85;;;;;;;;;;6244818;22;20013;-90
2022/10/30 11:20:20;;;;;;;14.35;5.60;;;;;;;;;;6244979;22;20015;-90
2022/10/30 11:22:50;;;;;;;16.77;6.20;;;;;;;;;;6246202;22;20038;-90
2022/10/30 11:25:32;;;;;;;16.95;5.82;;;;;;;;;;6245995;22;20004;-90
2022/10/30 11:28:02;;;;;;;19.05;6.47;;;;;;;;;;6246103;22;20007;-89
2022/10/30 11:30:29;;;;;;;17.38;6.97;;;;;;;;;;6271290;22;20004;-90
2022/10/30 11:32:59;;;;;;;12.30;5.82;;;;;;;;;;6245467;22;20011;-89
2022/10/30 11:35:26;;;;;;;18.35;5.50;;;;;;;;;;6225459;22;20030;-89
2022/10/30 11:38:12;;;;;;;18.58;6.00;;;;;;;;;;6238693;22;20036;-89
2022/10/30 11:40:40;;;;;;;17.58;5.70;;;;;;;;;;6241712;23;20009;-90
2022/10/30 11:43:06;;;;;;;15.63;5.65;;;;;;;;;;6214709;23;20432;-90
2022/10/30 11:45:35;;;;;;;22.13;6.60;;;;;;;;;;6238751;23;20064;-90
2022/10/30 11:48:08;;;;;;;15.05;5.00;;;;;;;;;;6239680;23;20403;-90
2022/10/30 11:50:34;;;;;;;15.02;6.80;;;;;;;;;;6240841;23;20013;-90
2022/10/30 11:53:01;;;;;;;18.10;7.13;;;;;;;;;;6216744;23;20230;-90
2022/10/30 11:55:41;;;;;;;19.23;5.50;;;;;;;;;;6218080;23;20341;-90
2022/10/30 11:58:08;;;;;;;16.10;6.05;;;;;;;;;;6213320;23;20004;-90
2022/10/30 12:00:37;;;;;;;15.65;6.72;;;;;;;;;;6213861;23;20008;-90
2022/10/30 12:03:04;;;;;;;15.85;5.55;;;;;;;;;;6237400;23;20032;-89
2022/10/30 12:05:36;;;;;;;13.25;4.97;;;;;;;;;;6213137;23;20028;-90
2022/10/30 12:08:08;;;;;;;20.15;5.47;;;;;;;;;;6233633;23;20193;-89
2022/10/30 12:10:39;;;;;;;13.77;5.25;;;;;;;;;;6234384;23;20008;-89
2022/10/30 12:13:05;;;;;;;14.00;5.22;;;;;;;;;;6234289;23;20060;-90
2022/10/30 12:15:38;;;;;;;14.05;5.85;;;;;;;;;;6233265;23;20020;-89
2022/10/30 12:18:06;;;;;;;14.43;5.80;;;;;;;;;;6212448;23;20440;-90
2022/10/30 12:20:32;;;;;;;12.13;4.70;;;;;;;;;;6232646;23;20441;-90
2022/10/30 12:23:08;;;;;;;10.65;4.53;;;;;;;;;;6235739;23;20009;-90
2022/10/30 12:25:34;;;;;;;16.63;5.68;;;;;;;;;;6210155;23;20003;-89
2022/10/30 12:28:04;;;;;;;17.00;4.57;;;;;;;;;;6210444;23;20040;-89
2022/10/30 12:30:32;;;;;;;23.40;6.38;;;;;;;;;;6210979;23;20072;-90
2022/10/30 12:33:03;;;;;;;19.60;4.88;;;;;;;;;;6234957;23;20512;-89
2022/10/30 12:35:32;;;;;;;16.33;4.68;;;;;;;;;;6234446;23;20435;-89
2022/10/30 12:37:59;;;;;;;13.30;5.05;;;;;;;;;;6232317;22;20474;-89
2022/10/30 12:40:33;;;;;;;27.00;5.55;;;;;;;;;;6244277;22;20011;-89
2022/10/30 12:43:18;;;;;;;14.15;5.35;;;;;;;;;;6269837;22;19999;-90
2022/10/30 12:45:49;;;;;;;14.63;5.07;;;;;;;;;;6244165;22;20011;-90
2022/10/30 12:48:36;;;;;;;19.08;5.10;;;;;;;;;;6269440;22;20004;-89
2022/10/30 12:51:14;;;;;;;17.70;6.28;;;;;;;;;;6270386;22;20086;-89
2022/10/30 12:53:57;;;;;;;17.55;5.63;;;;;;;;;;6244329;22;20023;-89
2022/10/30 12:56:36;;;;;;;15.18;6.25;;;;;;;;;;6242268;22;20358;-90
2022/10/30 12:59:18;;;;;;;17.55;5.57;;;;;;;;;;6243614;22;20014;-89
2022/10/30 13:01:48;;;;;;;16.85;5.95;;;;;;;;;;6243812;22;20014;-89
2022/10/30 13:04:23;;;;;;;21.83;7.28;;;;;;;;;;6241122;22;20419;-89
2022/10/30 13:07:12;;;;;;;19.70;6.30;;;;;;;;;;6269329;22;20061;-89
2022/10/30 13:09:43;;;;;;;16.55;6.90;;;;;;;;;;6222858;22;20058;-89
2022/10/30 13:12:15;;;;;;;14.55;6.93;;;;;;;;;;6268540;22;20022;-89
2022/10/30 13:14:45;;;;;;;15.38;6.10;;;;;;;;;;6242189;22;20038;-89
2022/10/30 13:17:12;;;;;;;22.70;6.57;;;;;;;;;;6269384;22;20489;-89
2022/10/30 13:19:42;;;;;;;22.85;7.80;;;;;;;;;;6219043;22;20342;-90
2022/10/30 13:22:14;;;;;;;17.55;6.43;;;;;;;;;;6268999;22;20000;-89
2022/10/30 13:24:40;;;;;;;24.45;6.55;;;;;;;;;;6270437;22;20000;-89
2022/10/30 13:27:09;;;;;;;21.92;5.80;;;;;;;;;;6241158;22;20439;-89
2022/10/30 13:30:00;;;;;;;16.58;6.82;;;;;;;;;;6241911;22;20439;-89
2022/10/30 13:32:41;;;;;;;17.65;5.70;;;;;;;;;;6271795;22;20312;-89
2022/10/30 13:35:20;;;;;;;14.88;5.40;;;;;;;;;;6243322;22;20382;-90
2022/10/30 13:38:13;;;;;;;20.50;6.50;;;;;;;;;;6237971;22;20016;-90
2022/10/30 13:40:50;;;;;;;28.75;7.30;;;;;;;;;;6244893;22;20023;-89
2022/10/30 13:43:24;;;;;;;15.32;5.97;;;;;;;;;;6244993;22;20413;-89
2022/10/30 13:46:02;;;;;;;11.23;5.70;;;;;;;;;;6243962;22;20217;-89
2022/10/30 13:48:36;;;;;;;17.08;5.90;;;;;;;;;;6244548;22;20083;-90
2022/10/30 13:51:14;;;;;;;15.65;6.07;;;;;;;;;;6243929;22;20312;-90
2022/10/30 13:53:43;;;;;;;23.33;6.72;;;;;;;;;;6270156;22;20022;-89
2022/10/30 13:56:12;;;;;;;17.60;7.13;;;;;;;;;;6246807;22;20004;-90
2022/10/30 13:58:41;;;;;;;16.88;6.47;;;;;;;;;;6245923;22;20004;-89
2022/10/30 14:01:17;;;;;;;25.60;7.30;;;;;;;;;;6272183;22;20031;-89
2022/10/30 14:04:06;;;;;;;17.58;6.65;;;;;;;;;;6247443;22;20007;-89
2022/10/30 14:06:35;;;;;;;18.63;6.65;;;;;;;;;;6242719;22;20015;-89
2022/10/30 14:09:01;;;;;;;17.90;7.07;;;;;;;;;;6243725;22;20004;-89
2022/10/30 14:11:27;;;;;;;15.75;7.65;;;;;;;;;;6244384;22;20339;-89
2022/10/30 14:13:54;;;;;;;19.08;7.63;;;;;;;;;;6220219;22;20072;-89
2022/10/30 14:16:41;;;;;;;20.75;7.68;;;;;;;;;;6243011;22;20030;-90
2022/10/30 14:19:11;;;;;;;22.50;7.38;;;;;;;;;;6243096;22;20018;-89
2022/10/30 14:21:37;;;;;;;18.17;8.15;;;;;;;;;;6244911;22;20426;-89
2022/10/30 14:24:05;;;;;;;20.95;7.75;;;;;;;;;;6243305;22;20027;-90
2022/10/30 14:26:31;;;;;;;19.90;6.82;;;;;;;;;;6270796;22;20427;-88
2022/10/30 14:28:57;;;;;;;20.17;8.68;;;;;;;;;;6218380;22;20007;-90
2022/10/30 14:31:34;;;;;;;22.20;8.38;;;;;;;;;;6216977;22;20008;-89
2022/10/30 14:34:00;;;;;;;23.73;8.05;;;;;;;;;;6243382;22;20087;-89
2022/10/30 14:36:33;;;;;;;23.63;8.40;;;;;;;;;;6217873;22;20018;-89